Time;durP1;ratioP1;P1;durP2;ratioP2;P2;SDS_P1;SDS_P2;PMS_P1;PMS_P2;Temp;Humidity;BMP_temperature;BMP_pressure;BME280_temperature;BME280_humidity;BME280_pressure;Samples;Min_cycle;Max_cycle;Signal;HPM_P1;HPM_P2
2023/05/22 00:02:06;;;;;;;17.95;16.05;;;;;;;;;;5071063;28;20048;-66
2023/05/22 00:04:33;;;;;;;14.95;13.55;;;;;;;;;;5073515;28;20048;-60
2023/05/22 00:07:02;;;;;;;19.23;16.50;;;;;;;;;;5055804;28;20052;-59
2023/05/22 00:09:29;;;;;;;17.00;15.18;;;;;;;;;;5054039;28;20056;-60
2023/05/22 00:11:56;;;;;;;15.63;14.13;;;;;;;;;;5064339;28;20064;-59
2023/05/22 00:14:23;;;;;;;16.60;14.95;;;;;;;;;;5057733;28;20076;-60
2023/05/22 00:16:49;;;;;;;14.15;12.85;;;;;;;;;;5068878;28;20052;-60
2023/05/22 00:19:17;;;;;;;13.90;12.43;;;;;;;;;;5053553;28;20056;-60
2023/05/22 00:21:43;;;;;;;15.48;13.98;;;;;;;;;;5053411;28;20083;-60
2023/05/22 00:24:11;;;;;;;15.95;14.45;;;;;;;;;;5053572;28;20049;-60
2023/05/22 00:26:38;;;;;;;18.58;16.75;;;;;;;;;;5054129;28;20048;-60
2023/05/22 00:29:05;;;;;;;17.25;15.45;;;;;;;;;;5065487;28;20413;-60
2023/05/22 00:31:32;;;;;;;19.02;14.77;;;;;;;;;;5060211;28;20057;-60
2023/05/22 00:33:59;;;;;;;16.30;14.63;;;;;;;;;;5068452;28;20048;-60
2023/05/22 00:36:26;;;;;;;17.40;15.68;;;;;;;;;;5054003;28;20063;-60
2023/05/22 00:38:52;;;;;;;14.88;13.38;;;;;;;;;;5058370;28;20048;-59
2023/05/22 00:41:21;;;;;;;14.80;13.20;;;;;;;;;;5073588;28;20413;-60
2023/05/22 00:43:49;;;;;;;15.80;14.18;;;;;;;;;;5069253;28;20048;-60
2023/05/22 00:46:20;;;;;;;17.77;15.95;;;;;;;;;;5072707;28;20048;-59
2023/05/22 00:48:47;;;;;;;14.15;12.75;;;;;;;;;;5073724;28;20052;-60
2023/05/22 00:51:14;;;;;;;14.32;12.93;;;;;;;;;;5055321;28;20052;-60
2023/05/22 00:53:41;;;;;;;14.18;12.88;;;;;;;;;;5056934;28;20055;-59
2023/05/22 00:56:09;;;;;;;13.68;12.27;;;;;;;;;;5073489;28;20398;-60
2023/05/22 00:58:37;;;;;;;14.25;12.80;;;;;;;;;;5069511;28;20055;-62
2023/05/22 01:01:04;;;;;;;16.27;14.48;;;;;;;;;;5067165;28;20497;-60
2023/05/22 01:03:32;;;;;;;14.10;12.70;;;;;;;;;;5053365;28;20060;-60
2023/05/22 01:06:00;;;;;;;16.00;14.18;;;;;;;;;;5072343;28;20045;-60
2023/05/22 01:08:26;;;;;;;12.52;11.30;;;;;;;;;;5072405;28;20067;-60
2023/05/22 01:10:56;;;;;;;12.07;10.98;;;;;;;;;;5072866;28;20056;-60
2023/05/22 01:13:27;;;;;;;13.43;12.15;;;;;;;;;;5058494;28;20064;-60
2023/05/22 01:16:00;;;;;;;17.73;15.82;;;;;;;;;;5061225;28;20063;-60
2023/05/22 01:18:31;;;;;;;18.63;16.50;;;;;;;;;;5071845;28;20056;-60
2023/05/22 01:21:03;;;;;;;14.18;12.77;;;;;;;;;;5072003;28;20056;-60
2023/05/22 01:23:47;;;;;;;13.27;11.88;;;;;;;;;;5069056;28;20135;-60
2023/05/22 01:26:31;;;;;;;12.15;10.90;;;;;;;;;;5053230;28;20049;-60
2023/05/22 01:29:12;;;;;;;13.18;11.60;;;;;;;;;;5059819;28;20060;-60
2023/05/22 01:31:41;;;;;;;23.63;14.30;;;;;;;;;;5069226;28;20057;-60
2023/05/22 01:34:10;;;;;;;27.95;16.25;;;;;;;;;;5069854;28;20053;-60
2023/05/22 01:36:38;;;;;;;20.20;16.52;;;;;;;;;;5071402;28;20049;-60
2023/05/22 01:39:05;;;;;;;21.42;16.85;;;;;;;;;;5060749;28;20045;-60
2023/05/22 01:41:32;;;;;;;43.03;22.65;;;;;;;;;;5072128;28;20048;-60
2023/05/22 01:44:00;;;;;;;27.27;20.77;;;;;;;;;;5061008;28;20063;-60
2023/05/22 01:46:27;;;;;;;22.98;19.00;;;;;;;;;;5051805;28;20064;-61
2023/05/22 01:48:55;;;;;;;21.45;19.15;;;;;;;;;;5056182;28;20044;-60
2023/05/22 01:51:24;;;;;;;18.27;16.38;;;;;;;;;;5072702;28;20051;-60
2023/05/22 01:53:53;;;;;;;17.88;16.08;;;;;;;;;;5067122;28;20051;-61
2023/05/22 01:56:31;;;;;;;20.88;18.75;;;;;;;;;;5052451;28;20060;-60
2023/05/22 01:59:01;;;;;;;19.00;16.95;;;;;;;;;;5058152;28;20429;-61
2023/05/22 02:01:29;;;;;;;22.80;19.13;;;;;;;;;;5064815;28;20503;-60
2023/05/22 02:03:58;;;;;;;35.45;18.58;;;;;;;;;;5052402;28;20056;-60
2023/05/22 02:06:26;;;;;;;61.60;23.33;;;;;;;;;;5052511;28;20048;-60
2023/05/22 02:08:53;;;;;;;129.15;24.92;;;;;;;;;;5052246;28;20041;-60
2023/05/22 02:11:21;;;;;;;68.55;23.65;;;;;;;;;;5052079;28;20080;-60
2023/05/22 02:13:48;;;;;;;69.85;22.92;;;;;;;;;;5053456;28;20067;-61
2023/05/22 02:16:15;;;;;;;59.42;20.00;;;;;;;;;;5056033;28;20068;-61
2023/05/22 02:18:43;;;;;;;39.42;20.13;;;;;;;;;;5052053;28;20049;-61
2023/05/22 02:21:11;;;;;;;38.20;18.25;;;;;;;;;;5057596;28;20064;-61
2023/05/22 02:23:38;;;;;;;206.25;33.33;;;;;;;;;;5052664;28;20061;-61
2023/05/22 02:26:05;;;;;;;261.23;35.08;;;;;;;;;;5061468;28;20048;-60
2023/05/22 02:28:32;;;;;;;53.45;18.55;;;;;;;;;;5055210;28;20063;-60
2023/05/22 02:30:58;;;;;;;194.40;27.02;;;;;;;;;;5058532;28;20045;-61
2023/05/22 02:33:25;;;;;;;87.88;21.27;;;;;;;;;;5055396;28;20064;-60
2023/05/22 02:35:52;;;;;;;40.47;17.35;;;;;;;;;;5055644;28;20056;-61
2023/05/22 02:38:20;;;;;;;34.10;15.93;;;;;;;;;;5056192;28;20049;-61
2023/05/22 02:40:48;;;;;;;25.35;15.65;;;;;;;;;;5057491;28;20056;-61
2023/05/22 02:43:15;;;;;;;19.20;14.52;;;;;;;;;;5056029;28;20057;-60
2023/05/22 02:45:42;;;;;;;16.08;14.35;;;;;;;;;;5058940;28;20103;-60
2023/05/22 02:48:08;;;;;;;26.98;15.23;;;;;;;;;;5055617;28;20064;-60
2023/05/22 02:50:35;;;;;;;78.20;19.88;;;;;;;;;;5060327;28;20078;-60
2023/05/22 02:53:02;;;;;;;63.28;19.95;;;;;;;;;;5074945;28;20063;-60
2023/05/22 02:55:30;;;;;;;118.78;23.42;;;;;;;;;;5070129;28;20053;-60
2023/05/22 02:57:57;;;;;;;108.65;22.92;;;;;;;;;;5055848;28;20049;-60
2023/05/22 03:00:24;;;;;;;64.13;20.33;;;;;;;;;;5055699;28;20052;-59
2023/05/22 03:02:51;;;;;;;68.85;20.35;;;;;;;;;;5067508;28;20060;-59
2023/05/22 03:05:17;;;;;;;49.72;17.92;;;;;;;;;;5074612;28;20056;-59
2023/05/22 03:07:44;;;;;;;37.50;19.33;;;;;;;;;;5075312;28;20052;-58
2023/05/22 03:10:11;;;;;;;40.28;19.85;;;;;;;;;;5068340;28;20060;-59
2023/05/22 03:12:39;;;;;;;20.65;18.15;;;;;;;;;;5072015;28;20059;-59
2023/05/22 03:15:06;;;;;;;18.75;16.75;;;;;;;;;;5073599;28;20056;-59
2023/05/22 03:17:33;;;;;;;16.58;14.88;;;;;;;;;;5059996;28;20045;-59
2023/05/22 03:20:00;;;;;;;16.42;14.73;;;;;;;;;;5074371;28;20401;-59
2023/05/22 03:22:27;;;;;;;19.25;17.27;;;;;;;;;;5075118;28;20045;-60
2023/05/22 03:24:54;;;;;;;18.88;16.40;;;;;;;;;;5075351;28;20052;-60
2023/05/22 03:27:20;;;;;;;19.75;17.65;;;;;;;;;;5062355;28;20049;-59
2023/05/22 03:29:49;;;;;;;23.67;17.75;;;;;;;;;;5055272;28;20056;-59
2023/05/22 03:32:15;;;;;;;21.50;17.67;;;;;;;;;;5055050;28;20064;-59
2023/05/22 03:34:43;;;;;;;20.80;18.45;;;;;;;;;;5054803;28;20072;-60
2023/05/22 03:37:10;;;;;;;24.10;19.88;;;;;;;;;;5071697;28;20048;-59
2023/05/22 03:39:38;;;;;;;19.50;17.40;;;;;;;;;;5063671;28;20053;-58
2023/05/22 03:42:05;;;;;;;19.00;17.00;;;;;;;;;;5071143;28;20414;-58
2023/05/22 03:44:32;;;;;;;15.45;14.00;;;;;;;;;;5074766;28;20048;-59
2023/05/22 03:47:00;;;;;;;18.52;16.63;;;;;;;;;;5068382;28;20057;-59
2023/05/22 03:49:27;;;;;;;16.45;14.75;;;;;;;;;;5066432;28;20390;-59
2023/05/22 03:51:54;;;;;;;19.63;17.52;;;;;;;;;;5071125;28;20068;-58
2023/05/22 03:54:21;;;;;;;20.20;17.60;;;;;;;;;;5054085;28;20053;-58
2023/05/22 03:56:48;;;;;;;14.90;13.40;;;;;;;;;;5053960;28;20056;-59
2023/05/22 03:59:15;;;;;;;17.88;15.30;;;;;;;;;;5054808;28;20072;-59
2023/05/22 04:01:41;;;;;;;16.42;14.82;;;;;;;;;;5053140;28;20045;-59
2023/05/22 04:04:10;;;;;;;19.35;17.35;;;;;;;;;;5054714;28;20045;-59
2023/05/22 04:06:41;;;;;;;19.95;17.83;;;;;;;;;;5054119;28;20048;-58
2023/05/22 04:09:09;;;;;;;20.92;17.05;;;;;;;;;;5053990;28;20057;-59
2023/05/22 04:11:38;;;;;;;19.05;17.10;;;;;;;;;;5061486;28;20505;-59
2023/05/22 04:14:05;;;;;;;19.08;17.13;;;;;;;;;;5073797;28;20131;-59
2023/05/22 04:16:32;;;;;;;23.52;17.45;;;;;;;;;;5060084;28;20053;-59
2023/05/22 04:19:00;;;;;;;21.20;19.00;;;;;;;;;;5054624;28;20048;-59
2023/05/22 04:21:28;;;;;;;30.08;21.30;;;;;;;;;;5053956;28;20048;-59
2023/05/22 04:23:55;;;;;;;18.73;16.83;;;;;;;;;;5055518;28;20052;-59
2023/05/22 04:26:22;;;;;;;20.13;16.13;;;;;;;;;;5067496;28;20044;-58
2023/05/22 04:28:48;;;;;;;15.70;13.52;;;;;;;;;;5053783;28;20057;-59
2023/05/22 04:31:15;;;;;;;15.30;13.65;;;;;;;;;;5052773;28;20064;-59
2023/05/22 04:33:47;;;;;;;19.58;14.77;;;;;;;;;;5056858;28;20053;-59
2023/05/22 04:36:13;;;;;;;15.77;14.13;;;;;;;;;;5062312;28;20045;-59
2023/05/22 04:38:43;;;;;;;18.88;16.63;;;;;;;;;;5073901;28;20423;-58
2023/05/22 04:41:12;;;;;;;25.38;21.65;;;;;;;;;;5072911;28;20060;-59
2023/05/22 04:43:39;;;;;;;15.70;14.10;;;;;;;;;;5073985;28;20044;-59
2023/05/22 04:46:07;;;;;;;17.85;16.10;;;;;;;;;;5071630;28;20063;-59
2023/05/22 04:48:34;;;;;;;14.55;13.02;;;;;;;;;;5070309;28;20064;-58
2023/05/22 04:51:02;;;;;;;16.33;14.63;;;;;;;;;;5066264;28;20056;-58
2023/05/22 04:53:29;;;;;;;17.10;15.30;;;;;;;;;;5063419;28;20056;-59
2023/05/22 04:55:57;;;;;;;15.40;13.90;;;;;;;;;;5053094;28;20418;-59
2023/05/22 04:58:26;;;;;;;17.02;15.43;;;;;;;;;;5053139;28;20450;-60
2023/05/22 05:00:53;;;;;;;17.85;16.05;;;;;;;;;;5053118;28;20053;-60
2023/05/22 05:03:20;;;;;;;16.70;15.00;;;;;;;;;;5057347;28;20053;-60
2023/05/22 05:05:47;;;;;;;18.67;16.88;;;;;;;;;;5056242;28;20048;-59
2023/05/22 05:08:14;;;;;;;18.52;16.75;;;;;;;;;;5071437;28;20044;-59
2023/05/22 05:10:41;;;;;;;20.98;17.55;;;;;;;;;;5073167;28;20056;-59
2023/05/22 05:13:09;;;;;;;19.23;17.23;;;;;;;;;;5060923;28;20049;-60
2023/05/22 05:15:36;;;;;;;17.08;15.32;;;;;;;;;;5071487;28;20059;-59
2023/05/22 05:18:02;;;;;;;14.70;13.27;;;;;;;;;;5067653;28;20052;-59
2023/05/22 05:20:30;;;;;;;15.90;14.30;;;;;;;;;;5052895;28;20049;-59
2023/05/22 05:22:57;;;;;;;16.52;14.93;;;;;;;;;;5050575;28;20418;-59
2023/05/22 05:25:24;;;;;;;18.17;16.38;;;;;;;;;;5052334;28;20057;-59
2023/05/22 05:27:50;;;;;;;22.00;19.15;;;;;;;;;;5049216;28;20044;-59
2023/05/22 05:30:19;;;;;;;17.08;15.38;;;;;;;;;;5049985;28;20057;-59
2023/05/22 05:32:45;;;;;;;20.98;18.88;;;;;;;;;;5050933;28;20056;-59
2023/05/22 05:35:12;;;;;;;22.35;19.33;;;;;;;;;;5048807;28;20060;-59
2023/05/22 05:37:40;;;;;;;21.92;19.73;;;;;;;;;;5055274;28;20041;-59
2023/05/22 05:40:08;;;;;;;20.08;18.05;;;;;;;;;;5055620;28;20052;-60
2023/05/22 05:42:34;;;;;;;20.80;18.70;;;;;;;;;;5058423;28;20049;-60
2023/05/22 05:45:01;;;;;;;22.70;20.30;;;;;;;;;;5056365;28;20048;-59
2023/05/22 05:47:29;;;;;;;23.38;20.42;;;;;;;;;;5059845;28;20040;-59
2023/05/22 05:49:56;;;;;;;23.85;21.40;;;;;;;;;;5061586;28;20045;-59
2023/05/22 05:52:25;;;;;;;20.40;18.30;;;;;;;;;;5053941;28;20052;-60
2023/05/22 05:54:52;;;;;;;24.60;22.08;;;;;;;;;;5052747;28;20052;-60
2023/05/22 05:57:19;;;;;;;20.50;18.40;;;;;;;;;;5059422;28;20045;-59
2023/05/22 05:59:46;;;;;;;22.45;20.02;;;;;;;;;;5057727;28;20060;-60
2023/05/22 06:02:13;;;;;;;24.73;22.33;;;;;;;;;;5056726;28;20052;-59
2023/05/22 06:04:41;;;;;;;20.88;18.88;;;;;;;;;;5057118;28;20064;-59
2023/05/22 06:07:08;;;;;;;19.90;17.90;;;;;;;;;;5069196;28;20047;-59
2023/05/22 06:09:35;;;;;;;19.30;17.40;;;;;;;;;;5066025;28;20049;-59
2023/05/22 06:12:01;;;;;;;19.48;17.52;;;;;;;;;;5062954;28;20057;-59
2023/05/22 06:14:29;;;;;;;21.35;19.23;;;;;;;;;;5051165;28;20057;-60
2023/05/22 06:16:56;;;;;;;18.63;16.73;;;;;;;;;;5056323;28;20049;-59
2023/05/22 06:19:23;;;;;;;19.27;17.35;;;;;;;;;;5061817;28;20056;-57
2023/05/22 06:21:51;;;;;;;19.88;17.77;;;;;;;;;;5054868;28;20059;-58
2023/05/22 06:24:18;;;;;;;19.40;17.50;;;;;;;;;;5061752;28;20049;-58
2023/05/22 06:26:45;;;;;;;19.33;17.52;;;;;;;;;;5050158;28;20746;-57
2023/05/22 06:29:15;;;;;;;21.10;18.95;;;;;;;;;;5054007;28;20057;-58
2023/05/22 06:31:41;;;;;;;18.33;16.55;;;;;;;;;;5051267;28;20056;-59
2023/05/22 06:34:08;;;;;;;20.77;18.85;;;;;;;;;;5052231;28;20486;-58
2023/05/22 06:36:36;;;;;;;19.60;17.63;;;;;;;;;;5056186;28;20672;-57
2023/05/22 06:39:04;;;;;;;18.33;16.48;;;;;;;;;;5066645;28;20496;-58
2023/05/22 06:41:32;;;;;;;18.50;16.55;;;;;;;;;;5061848;28;20160;-58
2023/05/22 06:43:59;;;;;;;20.95;18.92;;;;;;;;;;5065096;28;20083;-59
2023/05/22 06:46:25;;;;;;;18.80;16.85;;;;;;;;;;5066779;28;20057;-59
2023/05/22 06:48:53;;;;;;;17.23;15.52;;;;;;;;;;5054309;28;20091;-59
2023/05/22 06:51:19;;;;;;;18.38;16.52;;;;;;;;;;5059232;28;20414;-60
2023/05/22 06:53:46;;;;;;;17.80;16.00;;;;;;;;;;5057319;28;20049;-60
2023/05/22 06:56:15;;;;;;;18.80;17.00;;;;;;;;;;5059253;28;20049;-59
2023/05/22 06:58:41;;;;;;;18.33;16.33;;;;;;;;;;5052661;28;20497;-59
2023/05/22 07:01:08;;;;;;;17.60;15.90;;;;;;;;;;5063158;28;20483;-60
2023/05/22 07:03:35;;;;;;;18.08;16.25;;;;;;;;;;5061976;28;20063;-60
2023/05/22 07:06:02;;;;;;;18.98;16.95;;;;;;;;;;5068471;28;20068;-60
2023/05/22 07:08:29;;;;;;;17.80;15.95;;;;;;;;;;5057223;28;20401;-60
2023/05/22 07:10:56;;;;;;;18.25;16.55;;;;;;;;;;5064242;28;20048;-61
2023/05/22 07:13:24;;;;;;;18.23;16.42;;;;;;;;;;5067141;28;20056;-60
2023/05/22 07:15:51;;;;;;;16.95;15.18;;;;;;;;;;5067198;28;20059;-60
2023/05/22 07:18:18;;;;;;;16.88;15.25;;;;;;;;;;5064655;28;20052;-60
2023/05/22 07:20:45;;;;;;;19.15;17.20;;;;;;;;;;5062013;28;20044;-61
2023/05/22 07:23:12;;;;;;;18.00;16.20;;;;;;;;;;5063482;28;20429;-61
2023/05/22 07:25:39;;;;;;;20.05;17.05;;;;;;;;;;5066445;28;20049;-59
2023/05/22 07:28:07;;;;;;;18.40;16.50;;;;;;;;;;5066561;28;20044;-59
2023/05/22 07:30:37;;;;;;;17.97;15.87;;;;;;;;;;5063635;28;20726;-59
2023/05/22 07:33:04;;;;;;;17.77;16.05;;;;;;;;;;5060490;28;21429;-59
2023/05/22 07:35:31;;;;;;;19.40;17.40;;;;;;;;;;5066917;28;20056;-59
2023/05/22 07:37:58;;;;;;;19.05;17.08;;;;;;;;;;5057291;28;20052;-59
2023/05/22 07:40:25;;;;;;;18.73;16.83;;;;;;;;;;5063177;28;20055;-59
2023/05/22 07:42:51;;;;;;;19.77;17.65;;;;;;;;;;5064164;28;20501;-59
2023/05/22 07:45:18;;;;;;;18.55;16.67;;;;;;;;;;5065519;28;20056;-61
2023/05/22 07:47:47;;;;;;;19.15;17.15;;;;;;;;;;5061055;28;20060;-61
2023/05/22 07:50:13;;;;;;;20.77;18.63;;;;;;;;;;5066575;28;20049;-60
2023/05/22 07:52:40;;;;;;;21.63;18.83;;;;;;;;;;5061014;28;20379;-60
2023/05/22 07:55:08;;;;;;;19.90;18.00;;;;;;;;;;5059198;28;20053;-61
2023/05/22 07:57:35;;;;;;;21.15;19.05;;;;;;;;;;5059669;28;20056;-60
2023/05/22 08:00:08;;;;;;;20.48;17.98;;;;;;;;;;5066080;28;20421;-61
2023/05/22 08:02:35;;;;;;;21.83;18.35;;;;;;;;;;5060208;28;20056;-61
2023/05/22 08:05:03;;;;;;;19.60;17.55;;;;;;;;;;5066474;28;20065;-60
2023/05/22 08:07:33;;;;;;;19.17;17.15;;;;;;;;;;5064182;28;20400;-61
2023/05/22 08:10:03;;;;;;;18.58;16.77;;;;;;;;;;5061294;28;20068;-60
2023/05/22 08:12:29;;;;;;;18.40;16.58;;;;;;;;;;5060032;28;20064;-60
2023/05/22 08:14:56;;;;;;;17.27;15.63;;;;;;;;;;5063571;28;20048;-60
2023/05/22 08:17:23;;;;;;;16.73;15.02;;;;;;;;;;5056284;28;20500;-60
2023/05/22 08:19:50;;;;;;;17.05;15.40;;;;;;;;;;5059688;28;20067;-60
2023/05/22 08:22:18;;;;;;;16.45;14.85;;;;;;;;;;5061921;28;20060;-60
2023/05/22 08:24:45;;;;;;;15.85;14.35;;;;;;;;;;5060579;28;20052;-60
2023/05/22 08:27:12;;;;;;;15.60;14.02;;;;;;;;;;5066433;28;20057;-58
2023/05/22 08:29:39;;;;;;;15.15;13.65;;;;;;;;;;5063506;28;20053;-58
2023/05/22 08:32:06;;;;;;;14.27;12.95;;;;;;;;;;5065687;28;20056;-59
2023/05/22 08:34:34;;;;;;;13.80;12.50;;;;;;;;;;5065209;28;20056;-58
2023/05/22 08:37:01;;;;;;;13.95;12.65;;;;;;;;;;5064989;28;20064;-58
2023/05/22 08:39:30;;;;;;;12.60;11.40;;;;;;;;;;5059472;28;20782;-58
2023/05/22 08:41:57;;;;;;;13.15;12.02;;;;;;;;;;5063282;28;20060;-58
2023/05/22 08:44:24;;;;;;;12.73;11.52;;;;;;;;;;5067915;28;20512;-58
2023/05/22 08:46:52;;;;;;;13.07;11.97;;;;;;;;;;5068002;28;20060;-59
2023/05/22 08:49:21;;;;;;;12.07;10.83;;;;;;;;;;5064390;28;20044;-59
2023/05/22 08:51:52;;;;;;;12.43;11.10;;;;;;;;;;5063390;28;20486;-59
2023/05/22 08:54:21;;;;;;;11.77;10.77;;;;;;;;;;5063621;28;20500;-61
2023/05/22 08:56:51;;;;;;;11.27;10.27;;;;;;;;;;5058261;28;20059;-60
2023/05/22 08:59:19;;;;;;;11.82;10.73;;;;;;;;;;5061559;28;20052;-60
2023/05/22 09:01:46;;;;;;;11.88;10.88;;;;;;;;;;5060147;28;20045;-60
2023/05/22 09:04:13;;;;;;;11.68;10.57;;;;;;;;;;5065750;28;20048;-61
2023/05/22 09:06:40;;;;;;;11.43;10.45;;;;;;;;;;5063215;28;20063;-60
2023/05/22 09:09:07;;;;;;;11.23;10.13;;;;;;;;;;5062646;28;20409;-60
2023/05/22 09:11:34;;;;;;;11.20;10.30;;;;;;;;;;5060647;28;20067;-60
2023/05/22 09:14:08;;;;;;;10.95;9.85;;;;;;;;;;5060154;28;20056;-60
2023/05/22 09:16:45;;;;;;;11.75;10.65;;;;;;;;;;5065607;28;20071;-61
2023/05/22 09:19:12;;;;;;;10.88;9.88;;;;;;;;;;5065933;28;20048;-61
2023/05/22 09:21:39;;;;;;;11.80;10.65;;;;;;;;;;5061604;28;20421;-61
2023/05/22 09:24:07;;;;;;;11.40;10.30;;;;;;;;;;5059298;28;20493;-61
2023/05/22 09:26:34;;;;;;;11.70;10.70;;;;;;;;;;5061556;28;20060;-61
2023/05/22 09:29:01;;;;;;;11.63;10.55;;;;;;;;;;5058928;28;20528;-61
2023/05/22 09:31:30;;;;;;;11.98;10.82;;;;;;;;;;5055994;28;20045;-61
2023/05/22 09:33:57;;;;;;;12.10;11.02;;;;;;;;;;5062083;28;20048;-62
2023/05/22 09:36:30;;;;;;;11.20;10.27;;;;;;;;;;5064032;28;20063;-61
2023/05/22 09:38:56;;;;;;;12.93;11.70;;;;;;;;;;5062061;28;20044;-62
2023/05/22 09:41:26;;;;;;;11.90;10.90;;;;;;;;;;5058450;28;20067;-61
2023/05/22 09:43:53;;;;;;;12.15;10.95;;;;;;;;;;5063260;28;20414;-61
2023/05/22 09:46:20;;;;;;;12.20;11.10;;;;;;;;;;5060835;28;20059;-61
2023/05/22 09:48:55;;;;;;;12.98;11.70;;;;;;;;;;5059436;28;20525;-61
2023/05/22 09:51:23;;;;;;;12.40;11.30;;;;;;;;;;5062279;28;20055;-61
2023/05/22 09:53:51;;;;;;;12.25;11.15;;;;;;;;;;5063199;28;20071;-61
2023/05/22 09:56:23;;;;;;;12.00;11.10;;;;;;;;;;5060017;28;20057;-61
2023/05/22 09:58:58;;;;;;;12.32;11.23;;;;;;;;;;5059588;28;20044;-61
2023/05/22 10:01:25;;;;;;;11.77;10.75;;;;;;;;;;5063757;28;20433;-61
2023/05/22 10:03:52;;;;;;;;;;;;;;;;;;5054460;28;20048;-60
2023/05/22 10:06:21;;;;;;;12.07;10.93;;;;;;;;;;5054756;28;19920;-58
2023/05/22 10:08:50;;;;;;;13.00;11.85;;;;;;;;;;5055577;28;20409;-59
2023/05/22 10:11:17;;;;;;;13.10;12.00;;;;;;;;;;5061694;28;20049;-59
2023/05/22 10:13:46;;;;;;;11.80;10.80;;;;;;;;;;5066069;28;20071;-61
2023/05/22 10:16:15;;;;;;;12.98;11.68;;;;;;;;;;5064451;28;20914;-61
2023/05/22 10:18:45;;;;;;;13.35;12.25;;;;;;;;;;5064879;28;20370;-61
2023/05/22 10:21:13;;;;;;;11.98;10.95;;;;;;;;;;5063142;28;20067;-61
2023/05/22 10:23:41;;;;;;;13.38;12.18;;;;;;;;;;5057092;28;20056;-61
2023/05/22 10:26:08;;;;;;;12.68;11.52;;;;;;;;;;5057689;28;20049;-62
2023/05/22 10:28:38;;;;;;;13.27;12.18;;;;;;;;;;5066633;28;20509;-61
2023/05/22 10:31:11;;;;;;;14.68;13.27;;;;;;;;;;5067082;28;20057;-62
2023/05/22 10:33:40;;;;;;;13.80;12.57;;;;;;;;;;5065564;28;20063;-61
2023/05/22 10:36:08;;;;;;;14.00;12.68;;;;;;;;;;5059830;28;20059;-61
2023/05/22 10:38:45;;;;;;;14.75;13.35;;;;;;;;;;5063498;28;20060;-61
2023/05/22 10:41:14;;;;;;;13.95;12.70;;;;;;;;;;5066630;28;20052;-61
2023/05/22 10:43:41;;;;;;;14.77;13.48;;;;;;;;;;5067211;28;20059;-60
2023/05/22 10:46:10;;;;;;;14.60;12.82;;;;;;;;;;5066918;28;20056;-60
2023/05/22 10:48:37;;;;;;;14.13;12.93;;;;;;;;;;5067786;28;20059;-61
2023/05/22 10:51:04;;;;;;;14.30;13.00;;;;;;;;;;5070192;28;20060;-60
2023/05/22 10:53:31;;;;;;;14.05;12.75;;;;;;;;;;5063228;28;20064;-60
2023/05/22 10:56:01;;;;;;;14.13;12.73;;;;;;;;;;5066613;28;20071;-61
2023/05/22 10:58:30;;;;;;;15.48;14.07;;;;;;;;;;5069599;28;20048;-61
2023/05/22 11:01:11;;;;;;;16.45;14.60;;;;;;;;;;5066589;28;20040;-59
2023/05/22 11:03:57;;;;;;;16.55;15.07;;;;;;;;;;5063339;28;20060;-59
2023/05/22 11:06:34;;;;;;;14.50;13.30;;;;;;;;;;5062463;28;20421;-59
2023/05/22 11:09:16;;;;;;;13.50;12.07;;;;;;;;;;5063267;28;21847;-59
2023/05/22 11:11:43;;;;;;;14.15;12.75;;;;;;;;;;5064569;28;20048;-60
2023/05/22 11:14:12;;;;;;;14.07;12.52;;;;;;;;;;5063865;28;20048;-60
2023/05/22 11:16:39;;;;;;;14.13;12.85;;;;;;;;;;5060978;28;20071;-61
2023/05/22 11:19:07;;;;;;;13.73;12.53;;;;;;;;;;5064299;28;20048;-61
2023/05/22 11:21:42;;;;;;;14.30;13.10;;;;;;;;;;5064780;28;20052;-61
2023/05/22 11:24:09;;;;;;;12.57;11.48;;;;;;;;;;5068904;28;20391;-61
2023/05/22 11:26:36;;;;;;;13.98;12.55;;;;;;;;;;5065207;28;20057;-61
2023/05/22 11:29:07;;;;;;;13.80;12.52;;;;;;;;;;5066470;28;20429;-61
2023/05/22 11:31:36;;;;;;;14.15;12.98;;;;;;;;;;5057881;28;20060;-60
2023/05/22 11:34:03;;;;;;;17.20;15.88;;;;;;;;;;5069333;28;20402;-61
2023/05/22 11:36:30;;;;;;;20.90;19.33;;;;;;;;;;5069004;28;20055;-60
2023/05/22 11:38:58;;;;;;;23.63;21.67;;;;;;;;;;5065558;28;20056;-61
2023/05/22 11:41:24;;;;;;;17.50;16.10;;;;;;;;;;5066420;28;20056;-61
2023/05/22 11:43:51;;;;;;;16.25;14.85;;;;;;;;;;5069380;28;20478;-61
2023/05/22 11:46:18;;;;;;;15.18;13.95;;;;;;;;;;5061594;28;20060;-61
2023/05/22 11:48:49;;;;;;;17.65;16.05;;;;;;;;;;5067830;28;20056;-59
2023/05/22 11:51:19;;;;;;;20.80;19.00;;;;;;;;;;5061620;28;20415;-59
2023/05/22 11:53:47;;;;;;;21.52;19.75;;;;;;;;;;5062756;28;20415;-61
2023/05/22 11:56:16;;;;;;;23.70;21.70;;;;;;;;;;5069204;28;20179;-60
2023/05/22 11:58:43;;;;;;;21.92;20.02;;;;;;;;;;5062297;28;20059;-61
2023/05/22 12:01:13;;;;;;;22.70;20.48;;;;;;;;;;5056796;28;20075;-61
2023/05/22 12:03:40;;;;;;;23.20;21.10;;;;;;;;;;5068951;28;20505;-61
2023/05/22 12:06:11;;;;;;;20.35;18.30;;;;;;;;;;5062857;28;20055;-62
2023/05/22 12:08:38;;;;;;;18.90;17.27;;;;;;;;;;5062532;28;20055;-61
2023/05/22 12:11:05;;;;;;;18.35;16.55;;;;;;;;;;5057098;28;20049;-60
2023/05/22 12:13:32;;;;;;;17.23;15.57;;;;;;;;;;5067360;28;20072;-60
2023/05/22 12:16:00;;;;;;;16.15;14.88;;;;;;;;;;5061301;28;20048;-60
2023/05/22 12:18:26;;;;;;;15.07;13.87;;;;;;;;;;5064408;28;20520;-59
2023/05/22 12:20:55;;;;;;;15.88;14.52;;;;;;;;;;5063970;28;20044;-60
2023/05/22 12:23:23;;;;;;;18.13;16.63;;;;;;;;;;5065774;28;20049;-60
2023/05/22 12:26:00;;;;;;;17.40;14.60;;;;;;;;;;5063649;28;20512;-60
2023/05/22 12:28:27;;;;;;;15.77;14.38;;;;;;;;;;5066972;28;20056;-60
2023/05/22 12:30:58;;;;;;;19.10;17.60;;;;;;;;;;5063833;28;20044;-60
2023/05/22 12:33:25;;;;;;;16.75;15.40;;;;;;;;;;5067890;28;20390;-60
2023/05/22 12:35:52;;;;;;;17.45;15.95;;;;;;;;;;5065328;28;20496;-60
2023/05/22 12:38:20;;;;;;;17.42;15.77;;;;;;;;;;5067640;28;20507;-60
2023/05/22 12:40:47;;;;;;;;;;;;;;;;;;5062486;28;20048;-60
2023/05/22 12:43:13;;;;;;;;;;;;;;;;;;5062139;28;20301;-60
2023/05/22 12:45:41;;;;;;;;;;;;;;;;;;5065851;28;19924;-60
2023/05/22 12:48:07;;;;;;;;;;;;;;;;;;5061206;28;20372;-60
2023/05/22 12:50:34;;;;;;;;;;;;;;;;;;5061523;28;20007;-60
2023/05/22 12:53:00;;;;;;;;;;;;;;;;;;5060488;28;19920;-59
2023/05/22 12:55:27;;;;;;;;;;;;;;;;;;5060435;28;19927;-58
2023/05/22 12:57:54;;;;;;;;;;;;;;;;;;5062529;28;20353;-59
2023/05/22 13:00:20;;;;;;;;;;;;;;;;;;5062782;28;19928;-59
2023/05/22 13:02:47;;;;;;;;;;;;;;;;;;5060173;28;19986;-58
2023/05/22 13:05:13;;;;;;;;;;;;;;;;;;5068373;28;19920;-58
2023/05/22 13:07:39;;;;;;;;;;;;;;;;;;5067769;28;20262;-59
2023/05/22 13:10:06;;;;;;;;;;;;;;;;;;5059947;28;19931;-58
2023/05/22 13:12:35;;;;;;;;;;;;;;;;;;5067298;28;19935;-58
2023/05/22 13:15:02;;;;;;;;;;;;;;;;;;5060611;28;20298;-58
2023/05/22 13:17:29;;;;;;;;;;;;;;;;;;5061843;28;19924;-58
2023/05/22 13:19:55;;;;;;;;;;;;;;;;;;5062779;28;20384;-58
2023/05/22 13:22:22;;;;;;;;;;;;;;;;;;5061401;28;19920;-59
2023/05/22 13:27:29;;;;;;;;;;;;;;;;;;5061118;28;19920;-60
2023/05/22 13:29:55;;;;;;;;;;;;;;;;;;5055639;28;19928;-60
2023/05/22 13:32:22;;;;;;;;;;;;;;;;;;5062906;28;19924;-61
2023/05/22 13:34:48;;;;;;;;;;;;;;;;;;5050481;28;19927;-59
2023/05/22 13:37:15;;;;;;;;;;;;;;;;;;5062317;28;19928;-59
2023/05/22 13:39:41;;;;;;;;;;;;;;;;;;5064623;28;19921;-59
2023/05/22 13:42:08;;;;;;;;;;;;;;;;;;5067378;28;20269;-58
2023/05/22 13:44:34;;;;;;;;;;;;;;;;;;5061448;28;19929;-59
2023/05/22 13:47:01;;;;;;;;;;;;;;;;;;5064311;28;20392;-59
2023/05/22 13:49:27;;;;;;;;;;;;;;;;;;5067661;28;19955;-59
2023/05/22 13:51:54;;;;;;;;;;;;;;;;;;5063410;28;19931;-59
2023/05/22 13:54:20;;;;;;;;;;;;;;;;;;5066106;28;20317;-59
2023/05/22 13:56:47;;;;;;;;;;;;;;;;;;5064090;28;19920;-59
2023/05/22 13:59:13;;;;;;;;;;;;;;;;;;5065144;28;20377;-59
2023/05/22 14:01:40;;;;;;;;;;;;;;;;;;5060655;28;19936;-59
2023/05/22 14:04:06;;;;;;;;;;;;;;;;;;5055397;28;19920;-59
2023/05/22 14:06:33;;;;;;;;;;;;;;;;;;5063792;28;19924;-60
2023/05/22 14:08:59;;;;;;;;;;;;;;;;;;5053926;28;19920;-60
2023/05/22 14:11:26;;;;;;;;;;;;;;;;;;5052727;28;19924;-60
2023/05/22 14:13:53;;;;;;;;;;;;;;;;;;5060863;28;19925;-60
2023/05/22 14:16:19;;;;;;;;;;;;;;;;;;5063003;28;19920;-60
2023/05/22 14:18:46;;;;;;;;;;;;;;;;;;5057877;28;19928;-61
2023/05/22 14:21:12;;;;;;;;;;;;;;;;;;5063090;28;20000;-59
2023/05/22 14:23:39;;;;;;;;;;;;;;;;;;5068656;28;19920;-59
2023/05/22 14:26:05;;;;;;;;;;;;;;;;;;5069053;28;20357;-60
2023/05/22 14:28:32;;;;;;;;;;;;;;;;;;5074882;28;19928;-61
2023/05/22 14:30:58;;;;;;;;;;;;;;;;;;5067464;28;19931;-60
2023/05/22 14:33:25;;;;;;;;;;;;;;;;;;5069579;28;19943;-59
2023/05/22 14:35:51;;;;;;;;;;;;;;;;;;5065199;28;19921;-60
2023/05/22 14:38:18;;;;;;;;;;;;;;;;;;5069104;28;20278;-60
2023/05/22 14:40:44;;;;;;;;;;;;;;;;;;5068853;28;19920;-60
2023/05/22 14:43:11;;;;;;;;;;;;;;;;;;5061469;28;19920;-60